createdAt,value
2019-06-26T00:04:51.428Z,8.13
2019-06-26T00:09:53.708Z,7.90
2019-06-26T00:14:55.998Z,8.25
2019-06-26T00:19:58.282Z,7.97
2019-06-26T00:25:00.646Z,8.30
2019-06-26T00:30:04.682Z,7.90
2019-06-26T00:35:07.057Z,8.43
2019-06-26T00:40:09.514Z,7.90
2019-06-26T00:45:11.970Z,8.15
2019-06-26T00:50:14.408Z,8.53
2019-06-26T00:55:16.915Z,8.63
2019-06-26T01:00:20.768Z,8.70
2019-06-26T01:05:23.212Z,9.33
2019-06-26T01:10:25.856Z,8.50
2019-06-26T01:15:28.296Z,8.33
2019-06-26T01:20:30.651Z,8.43
2019-06-26T01:25:33.018Z,8.18
2019-06-26T01:30:35.289Z,8.68
2019-06-26T01:35:37.570Z,8.20
2019-06-26T01:40:39.995Z,8.68
2019-06-26T01:45:42.287Z,9.18
2019-06-26T01:50:44.666Z,8.25
2019-06-26T01:55:47.305Z,7.80
2019-06-26T02:00:49.619Z,8.33
2019-06-26T02:05:51.957Z,8.68
2019-06-26T02:10:54.594Z,9.38
2019-06-26T02:15:56.887Z,8.43
2019-06-26T02:20:59.213Z,8.40
2019-06-26T02:26:01.556Z,8.75
2019-06-26T02:31:03.892Z,9.18
2019-06-26T02:36:06.180Z,9.33
2019-06-26T02:41:08.515Z,8.88
2019-06-26T02:46:11.553Z,8.40
2019-06-26T02:51:13.910Z,8.78
2019-06-26T02:56:16.267Z,9.20
2019-06-26T03:01:18.519Z,8.98
2019-06-26T03:06:20.879Z,9.10
2019-06-26T03:11:23.252Z,9.03
2019-06-26T03:16:25.532Z,8.78
2019-06-26T03:21:27.882Z,8.70
2019-06-26T03:26:30.204Z,9.35
2019-06-26T03:31:32.479Z,8.53
2019-06-26T03:36:36.391Z,9.58
2019-06-26T03:41:38.656Z,9.23
2019-06-26T03:46:40.936Z,9.00
2019-06-26T03:51:43.357Z,8.48
2019-06-26T03:56:45.677Z,8.55
2019-06-26T04:01:47.949Z,8.65
2019-06-26T04:06:50.281Z,8.43
2019-06-26T04:11:52.651Z,9.05
2019-06-26T04:16:55.075Z,9.00
2019-06-26T04:21:57.351Z,9.38
2019-06-26T04:26:59.685Z,9.30
2019-06-26T04:32:02.511Z,8.60
2019-06-26T04:37:04.784Z,9.38
2019-06-26T04:42:07.078Z,9.25
2019-06-26T04:47:09.876Z,9.28
2019-06-26T04:52:12.204Z,9.50
2019-06-26T04:57:14.548Z,9.28
2019-06-26T05:02:16.844Z,8.98
2019-06-26T05:07:19.195Z,8.38
2019-06-26T05:12:21.571Z,8.33
2019-06-26T05:17:24.028Z,7.67
2019-06-26T05:22:26.653Z,7.60
2019-06-26T05:27:29.089Z,6.87
2019-06-26T05:32:31.452Z,7.60
2019-06-26T05:37:33.751Z,6.85
2019-06-26T05:42:36.033Z,6.60
2019-06-26T05:47:38.390Z,7.30
2019-06-26T05:52:43.034Z,7.53
2019-06-26T05:57:48.401Z,7.77
2019-06-26T06:02:49.731Z,7.00
2019-06-26T06:07:53.406Z,7.55
2019-06-26T06:12:55.831Z,6.92
2019-06-26T06:17:58.123Z,6.92
2019-06-26T06:23:00.865Z,6.76
2019-06-26T06:28:03.224Z,6.78
2019-06-26T06:33:05.570Z,6.83
2019-06-26T06:38:08.027Z,6.05
2019-06-26T06:43:10.327Z,5.70
2019-06-26T06:48:12.586Z,6.30
2019-06-26T06:53:14.887Z,5.87
2019-06-26T06:58:17.166Z,5.93
2019-06-26T07:03:19.824Z,5.22
2019-06-26T07:08:22.178Z,5.30
2019-06-26T07:13:24.521Z,6.60
2019-06-26T07:18:26.867Z,4.70
2019-06-26T07:23:29.145Z,5.05
2019-06-26T07:28:31.425Z,4.08
2019-06-26T07:33:33.757Z,4.80
2019-06-26T07:38:36.045Z,4.53
2019-06-26T07:43:38.344Z,4.50
2019-06-26T07:48:41.060Z,4.47
2019-06-26T07:53:43.481Z,3.85
2019-06-26T07:58:45.852Z,4.30
2019-06-26T08:03:48.265Z,4.40
2019-06-26T08:08:50.550Z,4.50
2019-06-26T08:13:52.916Z,4.67
2019-06-26T08:18:55.195Z,4.65
2019-06-26T08:23:57.817Z,4.33
2019-06-26T08:29:00.099Z,4.40
2019-06-26T08:34:02.571Z,4.45
2019-06-26T08:39:06.055Z,4.62
2019-06-26T08:49:24.371Z,4.58
2019-06-26T08:54:14.629Z,4.40
2019-06-26T08:59:17.041Z,4.90
2019-06-26T09:04:19.335Z,4.50
2019-06-26T09:09:21.709Z,4.57
2019-06-26T09:14:24.106Z,4.90
2019-06-26T09:19:26.418Z,5.28
2019-06-26T09:24:28.699Z,5.10
2019-06-26T09:29:30.987Z,5.10
2019-06-26T09:34:33.270Z,5.37
2019-06-26T09:39:35.615Z,5.90
2019-06-26T09:44:38.015Z,6.30
2019-06-26T09:49:40.353Z,5.72
2019-06-26T09:54:42.726Z,5.72
2019-06-26T09:59:45.133Z,6.12
2019-06-26T10:04:47.456Z,6.15
2019-06-26T10:09:49.795Z,5.97
2019-06-26T10:14:52.080Z,5.67
2019-06-26T10:19:54.380Z,6.10
2019-06-26T10:24:56.721Z,5.70
2019-06-26T10:29:59.550Z,6.50
2019-06-26T10:35:01.941Z,5.92
2019-06-26T10:40:04.526Z,6.40
2019-06-26T10:45:07.224Z,5.87
2019-06-26T10:50:09.792Z,5.87
2019-06-26T10:55:12.366Z,6.00
2019-06-26T11:00:15.253Z,6.42
2019-06-26T11:05:17.896Z,6.80
2019-06-26T11:10:20.358Z,6.78
2019-06-26T11:15:22.950Z,6.58
2019-06-26T11:20:25.786Z,6.83
2019-06-26T11:25:28.085Z,6.12
2019-06-26T11:30:30.514Z,6.50
2019-06-26T11:35:32.841Z,6.90
2019-06-26T11:40:35.143Z,6.17
2019-06-26T11:45:37.524Z,6.20
2019-06-26T11:50:40.255Z,5.93
2019-06-26T11:55:42.872Z,6.00
2019-06-26T12:00:45.266Z,5.55
2019-06-26T12:05:47.570Z,5.42
2019-06-26T12:10:49.932Z,6.45
2019-06-26T12:15:52.872Z,5.50
2019-06-26T12:20:55.218Z,5.67
2019-06-26T12:25:57.625Z,5.62
2019-06-26T12:31:00.015Z,5.37
2019-06-26T12:36:02.418Z,5.80
2019-06-26T12:41:04.783Z,5.60
2019-06-26T12:46:07.128Z,6.00
2019-06-26T12:51:09.504Z,5.35
2019-06-26T12:56:11.830Z,5.65
2019-06-26T13:01:14.121Z,5.90
2019-06-26T13:06:16.564Z,7.78
2019-06-26T13:11:18.908Z,5.72
2019-06-26T13:16:21.330Z,5.28
2019-06-26T13:21:23.662Z,5.92
2019-06-26T13:26:26.072Z,5.12
2019-06-26T13:31:28.440Z,5.47
2019-06-26T13:36:31.310Z,5.50
2019-06-26T13:41:33.603Z,5.70
2019-06-26T13:46:36.097Z,5.65
2019-06-26T13:51:38.400Z,5.33
2019-06-26T13:56:40.830Z,5.50
2019-06-26T14:01:44.376Z,5.58
2019-06-26T14:06:46.744Z,5.35
2019-06-26T14:11:49.249Z,5.12
2019-06-26T14:16:51.905Z,5.60
2019-06-26T14:21:54.345Z,5.92
2019-06-26T14:26:57.115Z,5.80
2019-06-26T14:31:59.439Z,5.10
2019-06-26T14:37:01.736Z,5.67
2019-06-26T14:42:04.081Z,5.42
2019-06-26T14:47:06.372Z,6.00
2019-06-26T14:52:08.729Z,6.08
2019-06-26T14:57:11.016Z,5.87
2019-06-26T15:02:14.387Z,5.70
2019-06-26T15:07:16.854Z,5.60
2019-06-26T15:12:19.222Z,5.80
2019-06-26T15:17:21.849Z,5.25
2019-06-26T15:22:24.214Z,5.73
2019-06-26T15:27:26.640Z,5.55
2019-06-26T15:32:29.080Z,5.72
2019-06-26T15:37:31.707Z,5.22
2019-06-26T15:42:34.128Z,5.97
2019-06-26T15:47:36.467Z,6.25
2019-06-26T15:52:38.836Z,6.40
2019-06-26T15:57:41.264Z,5.62
2019-06-26T16:02:43.638Z,5.55
2019-06-26T16:07:45.941Z,5.90
2019-06-26T16:12:48.294Z,6.00
2019-06-26T16:17:52.482Z,5.50
2019-06-26T16:22:56.314Z,5.97
2019-06-26T16:28:05.396Z,5.57
2019-06-26T16:33:02.913Z,5.90
2019-06-26T16:38:06.177Z,6.12
2019-06-26T16:43:08.593Z,6.05
2019-06-26T16:48:10.948Z,5.65
2019-06-26T16:53:13.376Z,6.60
2019-06-26T16:58:15.751Z,6.30
2019-06-26T17:03:18.045Z,5.92
2019-06-26T17:08:20.478Z,6.13
2019-06-26T17:13:22.832Z,5.60
2019-06-26T17:18:25.206Z,5.80
2019-06-26T17:23:27.690Z,6.00
2019-06-26T17:28:30.126Z,5.90
2019-06-26T17:33:32.405Z,6.10
2019-06-26T17:38:34.782Z,6.28
2019-06-26T17:43:38.824Z,6.27
2019-06-26T17:48:41.185Z,6.58
2019-06-26T17:53:43.766Z,6.08
2019-06-26T17:58:46.121Z,6.73
2019-06-26T18:03:48.509Z,6.37
2019-06-26T18:08:50.863Z,6.66
2019-06-26T18:13:53.121Z,7.08
2019-06-26T18:18:55.466Z,7.30
2019-06-26T18:23:57.834Z,7.45
2019-06-26T18:29:00.873Z,7.30
2019-06-26T18:34:03.713Z,7.35
2019-06-26T18:39:07.047Z,8.00
2019-06-26T18:44:09.455Z,7.60
2019-06-26T18:49:11.840Z,8.43
2019-06-26T18:54:14.194Z,7.70
2019-06-26T18:59:16.488Z,7.85
2019-06-26T19:04:18.772Z,7.62
2019-06-26T19:09:21.065Z,8.70
2019-06-26T19:14:23.380Z,7.83
2019-06-26T19:19:25.807Z,7.83
2019-06-26T19:24:28.148Z,7.83
2019-06-26T19:29:30.641Z,7.60
2019-06-26T19:34:33.300Z,8.15
2019-06-26T19:39:35.686Z,8.43
2019-06-26T19:44:38.111Z,7.80
2019-06-26T19:49:40.501Z,8.55
2019-06-26T19:54:42.831Z,8.43
2019-06-26T19:59:45.148Z,8.18
2019-06-26T20:04:48.511Z,8.15
2019-06-26T20:09:51.088Z,7.78
2019-06-26T20:14:53.469Z,8.00
2019-06-26T20:19:56.033Z,8.28
2019-06-26T20:24:58.390Z,7.62
2019-06-26T20:30:00.811Z,8.87
2019-06-26T20:35:03.870Z,8.45
2019-06-26T20:40:07.608Z,8.93
2019-06-26T20:45:13.728Z,8.00
2019-06-26T20:50:16.935Z,8.33
2019-06-26T20:55:19.297Z,8.50
2019-06-26T21:00:22.726Z,9.03
2019-06-26T21:05:28.536Z,8.93
2019-06-26T21:10:29.270Z,9.28
2019-06-26T21:15:31.637Z,9.75
2019-06-26T21:20:34.111Z,9.28
2019-06-26T21:25:36.427Z,9.88
2019-06-26T21:30:38.724Z,9.45
2019-06-26T21:35:41.003Z,9.80
2019-06-26T21:40:43.757Z,9.75
2019-06-26T21:45:46.220Z,9.65
2019-06-26T21:50:48.611Z,10.63
2019-06-26T21:55:51.146Z,10.25
2019-06-26T22:00:53.659Z,10.48
2019-06-26T22:05:56.227Z,11.12
2019-06-26T22:10:58.598Z,11.38
2019-06-26T22:16:01.370Z,11.20
2019-06-26T22:21:04.113Z,10.03
2019-06-26T22:26:06.598Z,11.30
2019-06-26T22:31:09.154Z,11.20
2019-06-26T22:36:11.526Z,10.23
2019-06-26T22:41:13.921Z,11.03
2019-06-26T22:46:16.343Z,11.22
2019-06-26T22:51:18.644Z,11.28
2019-06-26T22:56:21.008Z,10.93
2019-06-26T23:01:23.355Z,11.40
2019-06-26T23:06:25.671Z,11.05
2019-06-26T23:11:28.204Z,10.95
2019-06-26T23:16:30.740Z,10.80
2019-06-26T23:21:33.119Z,11.57
2019-06-26T23:26:35.528Z,11.65
2019-06-26T23:31:37.864Z,10.72
2019-06-26T23:36:40.191Z,11.60
2019-06-26T23:41:42.534Z,12.28
2019-06-26T23:46:44.888Z,12.07
2019-06-26T23:51:47.186Z,11.97
2019-06-26T23:56:49.642Z,13.15
